Latest Weather Observations for Albury

IDV60801

Issued at 9:22 pm EST Thursday 20 June 2019 (issued every 10 minutes, with the page automatically refreshed every 10 minutes)

About weather observations | Map of weather stations | Latest weather observations for VIC | Other Formats
Station Details ID: 072160 Name: ALBURY AIRPORT AWS Lat: -36.07 Lon: 146.95 Height: 163.5 m
Data from the previous 72 hours. | See also: Recent months at Albury
Date/Time
EST
Temp
°C
App
Temp
°C
Dew
Point
°C
Rel
Hum
%
Delta-T
°C
Wind Press
QNH
hPa
Press
MSL
hPa
Rain since
9am
mm
Dir  Spd
km/h
Gust
km/h
Spd
kts
Gust
kts
20/09:07pm 3.6 0.7 2.6 93 0.4 SSW 7 11 4 6 1025.6 1025.9 0.0
20/09:05pm 3.8 0.9 2.8 93 0.4 SSW 7 11 4 6 1025.6 1025.9 0.0
20/09:00pm 3.6 0.9 2.6 93 0.4 SSW 6 9 3 5 1025.5 1025.8 0.0
20/08:54pm 3.9 1.2 2.9 93 0.4 SSW 6 9 3 5 1025.5 1025.8 0.0
20/08:52pm 3.9 1.2 2.9 93 0.4 SW 6 7 3 4 1025.5 1025.8 0.0
20/08:36pm 3.4 1.7 2.1 91 0.5 CALM 0 7 0 4 1025.5 1025.8 0.0
20/08:30pm 3.9 2.3 2.6 91 0.5 CALM 0 4 0 2 1025.4 1025.7 0.0
20/08:00pm 3.6 1.9 1.8 88 0.7 CALM 0 0 0 0 1025.3 1025.6 0.0
20/07:30pm 4.7 2.0 2.9 88 0.7 WSW 6 6 3 3 1025.2 1025.5 0.0
20/07:00pm 5.1 1.9 3.0 86 0.9 W 9 13 5 7 1024.8 1025.1 0.0
20/06:30pm 6.1 1.7 2.7 79 1.4 W 15 19 8 10 1024.6 1024.9 0.0
20/06:00pm 6.4 2.0 2.5 76 1.6 W 15 20 8 11 1024.3 1024.6 0.0
20/05:30pm 6.5 3.2 2.2 74 1.8 W 9 15 5 8 1024.1 1024.4 0.0
20/05:00pm 7.1 3.1 2.8 74 1.8 WNW 13 19 7 10 1023.8 1024.1 0.0
20/04:30pm 8.0 3.6 2.9 70 2.2 WNW 15 20 8 11 1023.8 1024.1 0.0
20/04:00pm 8.4 4.7 2.6 67 2.4 W 11 13 6 7 1023.6 1023.9 0.0
20/03:30pm 8.5 4.8 2.5 66 2.5 W 11 15 6 8 1023.5 1023.8 0.0
20/03:00pm 9.2 5.1 2.5 63 2.8 W 13 22 7 12 1023.5 1023.8 0.0
20/02:30pm 9.2 5.8 1.9 60 3.1 WSW 9 15 5 8 1023.6 1023.9 0.0
20/02:00pm 8.9 5.5 1.6 60 3.0 WNW 9 13 5 7 1023.7 1024.0 0.0
20/01:30pm 7.8 5.1 2.7 70 2.2 SE 6 9 3 5 1024.0 1024.3 0.0
20/01:00pm 7.5 4.7 1.8 67 2.3 ENE 6 7 3 4 1024.3 1024.6 0.0
20/12:30pm 7.2 4.9 2.5 72 2.0 WSW 4 7 2 4 1024.8 1025.1 0.0
20/12:00pm 6.6 3.9 2.7 76 1.6 W 6 9 3 5 1025.4 1025.7 0.0
20/11:33am 5.5 3.6 2.8 83 1.1 WNW 2 7 1 4 1025.9 1026.2 0.0
20/11:30am 5.5 3.6 2.8 83 1.1 WNW 2 7 1 4 1026.0 1026.3 0.0
20/11:00am 4.7 2.1 3.2 90 0.6 WNW 6 7 3 4 1026.2 1026.5 0.0
20/10:30am 4.0 2.1 3.1 94 0.4 NE 2 7 1 4 1026.4 1026.7 0.0
20/10:00am 3.3 0.6 2.6 95 0.3 NE 6 9 3 5 1026.5 1026.8 0.0
20/09:30am 2.8 -0.2 2.1 95 0.3 ENE 7 11 4 6 1026.5 1026.8 0.0
20/09:00am 2.7 -0.7 2.1 96 0.2 ENE 9 13 5 7 1026.3 1026.6 0.2
20/08:30am 2.5 -1.3 1.9 96 0.2 ENE 11 13 6 7 1026.1 1026.4 0.2
20/08:00am 1.9 -0.6 1.3 96 0.2 SE 4 7 2 4 1026.0 1026.3 0.2
20/07:30am 1.6 -1.4 1.0 96 0.2 ESE 6 7 3 4 1025.9 1026.2 0.2
20/07:00am 2.1 -1.0 1.5 96 0.2 E 7 11 4 6 1025.7 1026.0 0.2
20/06:32am 1.7 -1.4 1.1 96 0.2 ENE 7 9 4 5 1025.4 1025.7 0.2
20/06:30am 1.7 -1.4 1.1 96 0.2 ENE 7 9 4 5 1025.4 1025.7 0.2
20/06:00am 1.5 -1.7 0.8 95 0.3 ENE 7 9 4 5 1025.1 1025.4 0.2
20/05:30am 1.4 -0.5 0.7 95 0.3 CALM 0 6 0 3 1024.9 1025.2 0.2
20/05:00am 1.6 -0.2 0.9 95 0.3 CALM 0 0 0 0 1024.7 1025.0 0.2
20/04:30am 1.7 -0.1 1.0 95 0.3 CALM 0 0 0 0 1024.8 1025.1 0.2
20/04:00am 1.8 0.0 1.1 95 0.3 CALM 0 0 0 0 1025.1 1025.4 0.2
20/03:30am 1.8 0.0 1.1 95 0.3 CALM 0 0 0 0 1025.3 1025.6 0.0
20/03:00am 0.7 -1.3 0.0 95 0.3 CALM 0 0 0 0 1025.3 1025.6 0.0
20/02:58am 0.5 -1.5 -0.2 95 0.3 CALM 0 0 0 0 1025.3 1025.6 0.0
20/02:30am 0.2 -1.9 -0.5 95 0.3 CALM 0 0 0 0 1025.5 1025.8 0.0
20/02:04am -0.6 -2.8 -1.4 94 0.3 CALM 0 0 0 0 1025.7 1026.0 0.0
20/02:00am -0.9 -3.1 -1.7 94 0.2 CALM 0 0 0 0 1025.7 1026.0 0.0
20/01:30am -0.2 -3.1 -1.0 94 0.3 ENE 4 7 2 4 1025.6 1025.9 0.0
20/01:23am 0.0 -2.1 -0.7 95 0.3 CALM 0 0 0 0 1025.6 1025.9 0.0
20/01:00am 0.4 -1.6 -0.3 95 0.3 CALM 0 0 0 0 1025.6 1025.9 0.0
20/12:41am 0.0 -2.1 -0.8 94 0.3 CALM 0 0 0 0 1025.6 1025.9 0.0
20/12:30am 0.0 -2.1 -0.8 94 0.3 CALM 0 0 0 0 1025.5 1025.8 0.0
20/12:00am 0.4 -1.6 -0.3 95 0.3 CALM 0 0 0 0 1025.5 1025.8 0.0
 
Date/Time
EST
Temp
°C
App
Temp
°C
Dew
Point
°C
Rel
Hum
%
Delta-T
°C
Wind Press
QNH
hPa
Press
MSL
hPa
Rain since
9am
mm
Dir  Spd
km/h
Gust
km/h
Spd
kts
Gust
kts
19/11:51pm 1.5 -0.4 0.8 95 0.3 CALM 0 0 0 0 1025.5 1025.8 0.0
19/11:30pm 0.8 -1.2 -0.1 94 0.3 CALM 0 0 0 0 1025.6 1025.9 0.0
19/11:24pm 0.4 -1.7 -0.5 94 0.3 CALM 0 0 0 0 1025.6 1025.9 0.0
19/11:00pm 1.0 -1.0 0.1 94 0.3 CALM 0 0 0 0 1025.6 1025.9 0.0
19/10:30pm 0.8 -1.6 -0.1 94 0.3 NE 2 6 1 3 1025.7 1026.0 0.0
19/10:18pm 1.3 -0.6 0.4 94 0.3 CALM 0 6 0 3 1025.7 1026.0 0.0
19/10:00pm 1.7 -0.2 0.8 94 0.3 CALM 0 0 0 0 1025.5 1025.8 0.0
19/09:30pm 1.8 0.0 0.9 94 0.3 CALM 0 0 0 0 1025.5 1025.8 0.0
19/09:18pm 1.5 -0.4 0.6 94 0.3 CALM 0 0 0 0 1025.5 1025.8 0.0
19/09:11pm 1.9 -0.3 1.0 94 0.3 NNW 2 6 1 3 1025.5 1025.8 0.0
19/09:00pm 2.2 -0.7 1.3 94 0.3 N 6 9 3 5 1025.6 1025.9 0.0
19/08:30pm 2.3 0.5 1.3 93 0.4 CALM 0 0 0 0 1025.6 1025.9 0.0
19/08:00pm 2.4 0.6 1.2 92 0.5 CALM 0 0 0 0 1025.4 1025.7 0.0
19/07:53pm 2.9 1.2 1.9 93 0.4 CALM 0 0 0 0 1025.3 1025.6 0.0
19/07:31pm 3.2 1.5 2.0 92 0.5 CALM 0 0 0 0 1025.3 1025.6 0.0
19/07:30pm 3.1 1.4 1.9 92 0.5 CALM 0 0 0 0 1025.3 1025.6 0.0
19/07:12pm 2.9 1.1 1.3 89 0.6 CALM 0 0 0 0 1025.3 1025.6 0.0
19/07:00pm 3.8 2.2 2.5 91 0.5 CALM 0 6 0 3 1025.3 1025.6 0.0
19/06:30pm 4.5 3.0 3.0 90 0.6 CALM 0 0 0 0 1025.2 1025.5 0.0
19/06:00pm 5.2 3.7 3.2 87 0.8 CALM 0 0 0 0 1025.0 1025.3 0.0
19/05:30pm 6.4 5.1 4.1 85 1.0 CALM 0 0 0 0 1024.9 1025.2 0.0
19/05:00pm 7.4 4.7 3.6 77 1.6 ESE 7 9 4 5 1024.8 1025.1 0.0
19/04:30pm 8.5 5.8 3.8 72 2.1 E 7 9 4 5 1024.8 1025.1 0.0
19/04:00pm 9.5 7.0 3.7 67 2.5 ENE 6 7 3 4 1024.8 1025.1 0.0
19/03:30pm 9.9 7.4 4.7 70 2.3 NE 7 15 4 8 1024.7 1025.0 0.0
19/03:08pm 9.4 6.8 4.2 70 2.3 ENE 7 11 4 6 1024.7 1025.0 0.0
19/03:00pm 9.4 6.8 4.4 71 2.2 ENE 7 11 4 6 1024.8 1025.1 0.0
19/02:40pm 9.5 7.1 5.3 75 1.9 NE 7 11 4 6 1024.8 1025.1 0.0
19/02:34pm 8.9 6.3 4.1 72 2.1 NE 7 11 4 6 1024.8 1025.1 0.0
19/02:30pm 9.0 6.6 4.2 72 2.1 NE 6 9 3 5 1024.8 1025.1 0.0
19/02:00pm 7.7 5.2 3.6 75 1.8 ESE 6 9 3 5 1024.9 1025.2 0.0
19/01:59pm 7.8 5.3 3.5 74 1.9 ESE 6 9 3 5 1024.9 1025.2 0.0
19/01:33pm 7.6 5.1 4.0 78 1.6 ENE 6 9 3 5 1025.0 1025.3 0.0
19/01:30pm 7.5 5.4 4.1 79 1.5 E 4 9 2 5 1025.1 1025.4 0.0
19/01:00pm 6.8 5.1 3.8 81 1.3 SSE 2 7 1 4 1025.3 1025.6 0.0
19/12:30pm 6.5 4.4 3.7 82 1.2 ESE 4 9 2 5 1025.5 1025.8 0.0
19/12:04pm 6.5 4.4 4.0 84 1.1 ENE 4 7 2 4 1025.7 1026.0 0.0
19/12:00pm 6.3 4.1 3.6 83 1.1 ENE 4 9 2 5 1025.7 1026.0 0.0
19/11:30am 6.0 3.5 3.8 86 0.9 S 6 9 3 5 1026.1 1026.4 0.0
19/11:08am 5.7 3.2 3.9 88 0.8 S 6 11 3 6 1026.2 1026.5 0.0
19/11:00am 5.7 3.1 4.0 89 0.7 S 7 9 4 5 1026.2 1026.5 0.0
19/10:40am 5.6 3.0 4.1 90 0.6 ESE 7 11 4 6 1026.2 1026.5 0.0
19/10:30am 5.4 2.8 4.2 92 0.5 SE 7 13 4 7 1026.2 1026.5 0.0
19/10:14am 5.2 2.6 4.3 94 0.4 SSE 7 9 4 5 1026.0 1026.3 0.0
19/10:10am 5.1 2.5 4.4 95 0.3 SSE 7 9 4 5 1026.1 1026.4 0.0
19/10:00am 4.7 2.6 4.0 95 0.3 E 4 7 2 4 1026.0 1026.3 0.0
19/09:42am 4.4 3.0 3.8 96 0.3 CALM 0 0 0 0 1026.0 1026.3 0.0
19/09:30am 3.9 2.5 3.3 96 0.2 CALM 0 0 0 0 1025.9 1026.2 0.0
19/09:18am 3.8 2.3 3.2 96 0.2 CALM 0 0 0 0 1025.8 1026.1 0.0
19/09:00am 3.3 1.0 2.7 96 0.2 WSW 4 9 2 5 1025.6 1025.9 0.8
19/08:30am 1.9 0.1 1.3 96 0.2 CALM 0 0 0 0 1025.1 1025.4 0.8
19/08:00am 1.3 -0.6 0.6 95 0.3 CALM 0 6 0 3 1024.8 1025.1 0.8
19/07:30am 0.5 -2.7 -0.2 95 0.3 SE 6 9 3 5 1024.7 1025.0 0.8
19/07:20am 0.4 -1.6 -0.3 95 0.3 CALM 0 7 0 4 1024.5 1024.8 0.8
19/07:11am 0.1 -3.1 -0.6 95 0.3 WNW 6 7 3 4 1024.4 1024.7 0.8
19/07:00am -0.4 -2.5 -1.1 95 0.2 CALM 0 6 0 3 1024.1 1024.4 0.8
19/06:30am 0.0 -2.1 -0.7 95 0.3 CALM 0 0 0 0 1023.7 1024.0 0.8
19/06:00am 0.2 -3.0 -0.5 95 0.3 NW 6 7 3 4 1023.3 1023.6 0.8
19/05:30am 0.3 -1.7 -0.4 95 0.3 CALM 0 0 0 0 1023.0 1023.3 0.8
19/05:20am 0.1 -2.0 -0.6 95 0.3 CALM 0 0 0 0 1023.0 1023.3 0.8
19/05:00am -0.1 -2.2 -0.8 95 0.2 CALM 0 0 0 0 1022.9 1023.2 0.8
19/04:30am 0.7 -1.3 0.0 95 0.3 CALM 0 0 0 0 1022.8 1023.1 0.8
19/04:00am 0.6 -1.4 -0.3 94 0.3 CALM 0 0 0 0 1022.6 1022.9 0.8
19/03:41am 1.2 -0.7 0.3 94 0.3 CALM 0 0 0 0 1022.6 1022.9 0.8
19/03:30am 0.9 -1.5 0.0 94 0.3 SE 2 6 1 3 1022.7 1023.0 0.8
19/03:15am 0.7 -1.3 -0.3 93 0.4 CALM 0 6 0 3 1022.7 1023.0 0.8
19/03:00am 1.9 0.1 1.0 94 0.3 CALM 0 0 0 0 1022.6 1022.9 0.8
19/02:30am 2.0 0.2 1.0 93 0.4 CALM 0 2 0 1 1022.5 1022.8 0.8
19/02:07am 2.1 -1.0 1.1 93 0.4 ENE 7 9 4 5 1022.3 1022.6 0.8
19/02:00am 2.4 -0.5 1.4 93 0.4 ENE 6 9 3 5 1022.2 1022.5 0.8
19/01:30am 3.1 1.4 1.6 90 0.6 CALM 0 0 0 0 1021.9 1022.2 0.8
19/01:00am 5.0 1.1 3.2 88 0.7 SW 13 17 7 9 1021.9 1022.2 0.8
19/12:30am 5.1 1.2 3.4 89 0.7 WSW 13 17 7 9 1021.7 1022.0 0.8
19/12:00am 5.1 1.2 3.6 90 0.6 W 13 17 7 9 1021.6 1021.9 0.8
 
Date/Time
EST
Temp
°C
App
Temp
°C
Dew
Point
°C
Rel
Hum
%
Delta-T
°C
Wind Press
QNH
hPa
Press
MSL
hPa
Rain since
9am
mm
Dir  Spd
km/h
Gust
km/h
Spd
kts
Gust
kts
18/11:30pm 5.2 1.4 3.9 91 0.6 WSW 13 17 7 9 1021.8 1022.1 0.8
18/11:00pm 4.4 1.2 3.2 92 0.5 WSW 9 13 5 7 1021.8 1022.1 0.8
18/10:30pm 4.9 3.2 3.9 93 0.4 WNW 2 7 1 4 1021.6 1021.9 0.8
18/10:00pm 4.4 1.2 3.1 91 0.5 NW 9 11 5 6 1021.5 1021.8 0.8
18/09:30pm 5.5 4.2 4.3 92 0.5 CALM 0 0 0 0 1021.4 1021.7 0.8
18/09:00pm 6.0 3.0 4.3 89 0.7 W 9 9 5 5 1021.1 1021.4 0.8
18/08:30pm 6.2 2.9 4.4 88 0.8 WSW 11 11 6 6 1021.2 1021.5 0.8
18/08:00pm 7.2 4.0 4.9 85 1.0 WSW 11 13 6 7 1021.0 1021.3 0.8
18/07:30pm 8.8 4.1 6.1 83 1.2 SW 20 28 11 15 1021.0 1021.3 0.8
18/07:00pm 8.2 5.8 6.8 91 0.7 W 9 13 5 7 1020.6 1020.9 0.8
18/06:30pm 9.3 6.3 7.9 91 0.7 W 13 17 7 9 1020.3 1020.6 0.8
18/06:00pm 9.4 7.2 7.7 89 0.8 WNW 9 13 5 7 1020.0 1020.3 0.8
18/05:30pm 9.6 7.0 7.9 89 0.8 WNW 11 15 6 8 1019.7 1020.0 0.8
18/05:00pm 9.9 8.2 8.3 90 0.8 W 7 9 4 5 1019.5 1019.8 0.6
18/04:52pm 9.9 8.4 8.3 90 0.8 W 6 7 3 4 1019.4 1019.7 0.6
18/04:31pm 10.3 7.4 8.1 86 1.1 NW 13 22 7 12 1019.3 1019.6 0.4
18/04:30pm 10.4 7.9 8.0 85 1.2 NW 11 22 6 12 1019.3 1019.6 0.4
18/04:12pm 10.4 8.8 8.2 86 1.1 SSW 6 9 3 5 1019.1 1019.4 0.2
18/04:00pm 10.5 9.0 8.3 86 1.1 SSW 6 9 3 5 1019.0 1019.3 0.2
18/03:30pm 11.4 9.9 8.3 81 1.5 SSW 6 9 3 5 1018.9 1019.2 0.0
18/03:21pm 11.2 9.6 7.9 80 1.6 SW 6 9 3 5 1019.0 1019.3 0.0
18/03:00pm 10.9 9.3 7.8 81 1.5 S 6 7 3 4 1019.0 1019.3 0.0
18/02:30pm 10.2 9.2 7.3 82 1.4 SE 2 6 1 3 1019.1 1019.4 0.0
18/02:00pm 9.5 7.6 6.9 84 1.2 SSE 6 7 3 4 1019.4 1019.7 0.0
18/01:41pm 9.3 7.8 6.9 85 1.1 SW 4 9 2 5 1019.5 1019.8 0.0
18/01:30pm 9.0 6.9 6.6 85 1.1 S 7 11 4 6 1019.6 1019.9 0.0
18/01:00pm 8.5 6.3 6.3 86 1.0 SE 7 9 4 5 1019.9 1020.2 0.0
18/12:30pm 8.3 6.3 6.4 88 0.9 S 6 7 3 4 1020.5 1020.8 0.0
18/12:00pm 8.1 6.5 6.2 88 0.9 S 4 7 2 4 1020.8 1021.1 0.0
18/11:30am 8.1 6.8 6.2 88 0.9 E 2 7 1 4 1021.0 1021.3 0.0
18/11:00am 6.9 5.9 5.5 91 0.6 CALM 0 0 0 0 1021.5 1021.8 0.0
18/10:59am 6.9 5.9 5.5 91 0.6 CALM 0 0 0 0 1021.5 1021.8 0.0
18/10:30am 6.4 3.7 5.4 93 0.4 ENE 9 11 5 6 1021.5 1021.8 0.0
18/10:11am 6.1 3.7 5.2 94 0.4 E 7 11 4 6 1021.6 1021.9 0.0
18/10:00am 5.7 3.2 4.8 94 0.4 ENE 7 9 4 5 1021.7 1022.0 0.0
18/09:56am 5.6 3.1 4.6 93 0.4 ENE 7 9 4 5 1021.8 1022.1 0.0
18/09:30am 5.4 3.5 4.7 95 0.3 ENE 4 7 2 4 1021.8 1022.1 0.0
18/09:00am 5.1 2.7 4.5 96 0.3 ESE 6 9 3 5 1021.4 1021.7 0.2
18/08:30am 4.9 2.9 4.3 96 0.3 ESE 4 9 2 5 1021.3 1021.6 0.2
18/08:00am 4.3 2.9 3.7 96 0.3 CALM 0 0 0 0 1021.2 1021.5 0.2
18/07:50am 4.2 2.8 3.6 96 0.3 CALM 0 0 0 0 1021.2 1021.5 0.2
18/07:35am 4.1 2.7 3.5 96 0.2 CALM 0 0 0 0 1021.3 1021.6 0.2
18/07:30am 4.1 2.7 3.5 96 0.2 CALM 0 0 0 0 1021.2 1021.5 0.2
18/07:12am 3.9 2.4 3.2 95 0.3 CALM 0 0 0 0 1021.1 1021.4 0.2
18/07:00am 3.7 2.2 3.0 95 0.3 CALM 0 0 0 0 1021.0 1021.3 0.2
18/06:30am 3.0 1.4 2.3 95 0.3 CALM 0 0 0 0 1021.0 1021.3 0.2
18/06:19am 3.1 1.5 2.4 95 0.3 CALM 0 0 0 0 1021.0 1021.3 0.2
18/06:00am 3.0 1.4 2.3 95 0.3 CALM 0 0 0 0 1020.8 1021.1 0.2
18/05:30am 2.8 1.1 2.1 95 0.3 CALM 0 0 0 0 1020.8 1021.1 0.2
18/05:00am 2.2 0.4 1.3 94 0.3 CALM 0 0 0 0 1020.8 1021.1 0.2
18/04:59am 2.0 0.2 1.1 94 0.3 CALM 0 0 0 0 1020.9 1021.2 0.2
18/04:36am 2.2 0.4 1.3 94 0.3 CALM 0 0 0 0 1020.8 1021.1 0.2
18/04:30am 2.4 0.6 1.5 94 0.3 CALM 0 0 0 0 1020.9 1021.2 0.2
18/04:18am 2.2 0.4 1.3 94 0.3 CALM 0 0 0 0 1021.0 1021.3 0.2
18/04:06am 1.9 0.1 1.0 94 0.3 CALM 0 0 0 0 1021.0 1021.3 0.2
18/04:00am 3.0 1.3 2.1 94 0.4 CALM 0 0 0 0 1021.0 1021.3 0.2
18/03:43am 2.3 0.5 1.3 93 0.4 CALM 0 0 0 0 1021.3 1021.6 0.2
18/03:30am 2.7 1.0 1.8 94 0.4 CALM 0 0 0 0 1021.3 1021.6 0.2
18/03:00am 2.9 1.3 2.2 95 0.3 CALM 0 7 0 4 1021.5 1021.8 0.2
18/02:30am 2.9 1.2 2.0 94 0.4 CALM 0 0 0 0 1021.7 1022.0 0.2
18/02:00am 2.6 0.9 1.7 94 0.3 CALM 0 0 0 0 1021.8 1022.1 0.2
18/01:30am 2.5 0.8 1.6 94 0.4 CALM 0 0 0 0 1021.7 1022.0 0.2
18/01:06am 3.1 1.5 2.4 95 0.3 CALM 0 0 0 0 1021.6 1021.9 0.2
18/01:00am 3.2 1.6 2.5 95 0.3 CALM 0 0 0 0 1021.7 1022.0 0.2
18/12:47am 2.9 0.8 2.0 94 0.4 WNW 2 6 1 3 1021.9 1022.2 0.2
18/12:46am 2.9 0.8 2.0 94 0.4 WNW 2 6 1 3 1021.9 1022.2 0.2
18/12:30am 3.0 0.2 2.1 94 0.4 ESE 6 9 3 5 1022.0 1022.3 0.2
18/12:09am 3.4 1.8 2.5 94 0.4 CALM 0 0 0 0 1022.2 1022.5 0.2
18/12:00am 3.7 2.2 2.8 94 0.4 CALM 0 0 0 0 1022.3 1022.6 0.2
 
Date/Time
EST
Temp
°C
App
Temp
°C
Dew
Point
°C
Rel
Hum
%
Delta-T
°C
Wind Press
QNH
hPa
Press
MSL
hPa
Rain since
9am
mm
Dir  Spd
km/h
Gust
km/h
Spd
kts
Gust
kts
17/11:33pm 3.7 2.2 2.8 94 0.4 CALM 0 0 0 0 1022.6 1022.9 0.2
17/11:30pm 3.6 2.0 2.7 94 0.4 CALM 0 0 0 0 1022.5 1022.8 0.2
17/11:00pm 4.1 2.7 3.4 95 0.3 CALM 0 0 0 0 1022.7 1023.0 0.2
17/10:30pm 3.4 1.8 2.4 93 0.4 CALM 0 0 0 0 1022.6 1022.9 0.2
17/10:00pm 4.1 2.6 3.1 93 0.4 CALM 0 0 0 0 1023.0 1023.3 0.2
17/09:34pm 4.4 3.0 3.4 93 0.4 CALM 0 0 0 0 1023.0 1023.3 0.2
17/09:30pm 4.9 3.6 3.9 93 0.4 CALM 0 0 0 0 1023.0 1023.3 0.2

Other formats

Comma delimited format used in spreadsheet applications
http://www.bom.gov.au/fwo/IDV60801/IDV60801.95896.axf

JavaScript Object Notation format (JSON) in row-major order
http://www.bom.gov.au/fwo/IDV60801/IDV60801.95896.json

Data quality

Most of these data are generated automatically and are frequently updated. Quality checks on data are not normally performed. It is possible for incorrect values to appear. Refer to information at About Latest Weather Observations and please check the disclaimer before using these data.